sensor_id;sensor_type;location;lat;lon;timestamp;P1;durP1;ratioP1;P2;durP2;ratioP2
49043;SDS011;34860;48.066;14.124;2023-07-16T00:01:04;5.20;;;0.73;;
49043;SDS011;34860;48.066;14.124;2023-07-16T00:03:51;2.20;;;0.70;;
49043;SDS011;34860;48.066;14.124;2023-07-16T00:06:40;1.60;;;0.65;;
49043;SDS011;34860;48.066;14.124;2023-07-16T00:09:28;0.95;;;0.38;;
49043;SDS011;34860;48.066;14.124;2023-07-16T00:12:17;5.15;;;0.63;;
49043;SDS011;34860;48.066;14.124;2023-07-16T00:15:06;1.05;;;0.70;;
49043;SDS011;34860;48.066;14.124;2023-07-16T00:17:55;0.47;;;0.30;;
49043;SDS011;34860;48.066;14.124;2023-07-16T00:20:43;0.55;;;0.32;;
49043;SDS011;34860;48.066;14.124;2023-07-16T00:23:31;1.30;;;0.50;;
49043;SDS011;34860;48.066;14.124;2023-07-16T00:26:19;1.92;;;1.20;;
49043;SDS011;34860;48.066;14.124;2023-07-16T00:29:08;6.70;;;0.65;;
49043;SDS011;34860;48.066;14.124;2023-07-16T00:31:56;2.47;;;0.30;;
49043;SDS011;34860;48.066;14.124;2023-07-16T00:34:44;1.05;;;0.30;;
49043;SDS011;34860;48.066;14.124;2023-07-16T00:37:33;1.33;;;0.40;;
49043;SDS011;34860;48.066;14.124;2023-07-16T00:40:21;1.60;;;0.50;;
49043;SDS011;34860;48.066;14.124;2023-07-16T00:43:09;2.60;;;0.40;;
49043;SDS011;34860;48.066;14.124;2023-07-16T00:45:59;1.02;;;0.40;;
49043;SDS011;34860;48.066;14.124;2023-07-16T00:48:48;0.88;;;0.50;;
49043;SDS011;34860;48.066;14.124;2023-07-16T00:51:36;2.60;;;0.30;;
49043;SDS011;34860;48.066;14.124;2023-07-16T00:54:24;4.85;;;0.40;;
49043;SDS011;34860;48.066;14.124;2023-07-16T00:57:13;0.60;;;0.30;;
49043;SDS011;34860;48.066;14.124;2023-07-16T01:00:01;0.80;;;0.45;;
49043;SDS011;34860;48.066;14.124;2023-07-16T01:02:52;0.82;;;0.50;;
49043;SDS011;34860;48.066;14.124;2023-07-16T01:05:45;0.35;;;0.25;;
49043;SDS011;34860;48.066;14.124;2023-07-16T01:08:38;0.45;;;0.30;;
49043;SDS011;34860;48.066;14.124;2023-07-16T01:11:29;2.50;;;0.35;;
49043;SDS011;34860;48.066;14.124;2023-07-16T01:14:18;1.00;;;0.52;;
49043;SDS011;34860;48.066;14.124;2023-07-16T01:17:06;0.68;;;0.25;;
49043;SDS011;34860;48.066;14.124;2023-07-16T01:19:56;0.93;;;0.32;;
49043;SDS011;34860;48.066;14.124;2023-07-16T01:23:01;0.93;;;0.40;;
49043;SDS011;34860;48.066;14.124;2023-07-16T01:26:02;0.63;;;0.30;;
49043;SDS011;34860;48.066;14.124;2023-07-16T01:29:18;0.70;;;0.40;;
49043;SDS011;34860;48.066;14.124;2023-07-16T01:32:15;0.40;;;0.30;;
49043;SDS011;34860;48.066;14.124;2023-07-16T01:35:05;3.50;;;0.50;;
49043;SDS011;34860;48.066;14.124;2023-07-16T01:37:53;0.85;;;0.30;;
49043;SDS011;34860;48.066;14.124;2023-07-16T01:40:42;0.90;;;0.50;;
49043;SDS011;34860;48.066;14.124;2023-07-16T01:43:30;3.17;;;0.77;;
49043;SDS011;34860;48.066;14.124;2023-07-16T01:46:19;0.73;;;0.45;;
49043;SDS011;34860;48.066;14.124;2023-07-16T01:49:07;0.50;;;0.30;;
49043;SDS011;34860;48.066;14.124;2023-07-16T01:51:57;1.08;;;0.32;;
49043;SDS011;34860;48.066;14.124;2023-07-16T01:54:45;5.55;;;0.32;;
49043;SDS011;34860;48.066;14.124;2023-07-16T01:57:33;1.08;;;0.50;;
49043;SDS011;34860;48.066;14.124;2023-07-16T02:00:21;0.70;;;0.40;;
49043;SDS011;34860;48.066;14.124;2023-07-16T02:03:13;1.23;;;0.57;;
49043;SDS011;34860;48.066;14.124;2023-07-16T02:06:01;1.17;;;0.63;;
49043;SDS011;34860;48.066;14.124;2023-07-16T02:08:52;1.15;;;0.57;;
49043;SDS011;34860;48.066;14.124;2023-07-16T02:11:40;2.50;;;0.90;;
49043;SDS011;34860;48.066;14.124;2023-07-16T02:14:28;0.80;;;0.50;;
49043;SDS011;34860;48.066;14.124;2023-07-16T02:17:16;1.35;;;0.75;;
49043;SDS011;34860;48.066;14.124;2023-07-16T02:20:06;1.40;;;0.73;;
49043;SDS011;34860;48.066;14.124;2023-07-16T02:22:57;1.25;;;0.57;;
49043;SDS011;34860;48.066;14.124;2023-07-16T02:25:46;3.80;;;0.50;;
49043;SDS011;34860;48.066;14.124;2023-07-16T02:28:35;1.60;;;0.52;;
49043;SDS011;34860;48.066;14.124;2023-07-16T02:31:24;0.80;;;0.50;;
49043;SDS011;34860;48.066;14.124;2023-07-16T02:34:12;0.90;;;0.43;;
49043;SDS011;34860;48.066;14.124;2023-07-16T02:37:02;1.02;;;0.60;;
49043;SDS011;34860;48.066;14.124;2023-07-16T02:39:50;1.65;;;0.52;;
49043;SDS011;34860;48.066;14.124;2023-07-16T02:42:38;1.02;;;0.60;;
49043;SDS011;34860;48.066;14.124;2023-07-16T02:45:26;0.70;;;0.50;;
49043;SDS011;34860;48.066;14.124;2023-07-16T02:48:14;0.73;;;0.47;;
49043;SDS011;34860;48.066;14.124;2023-07-16T02:51:03;1.52;;;0.50;;
49043;SDS011;34860;48.066;14.124;2023-07-16T02:53:52;1.08;;;0.40;;
49043;SDS011;34860;48.066;14.124;2023-07-16T02:56:41;1.15;;;0.45;;
49043;SDS011;34860;48.066;14.124;2023-07-16T02:59:29;1.67;;;0.60;;
49043;SDS011;34860;48.066;14.124;2023-07-16T03:02:17;0.52;;;0.30;;
49043;SDS011;34860;48.066;14.124;2023-07-16T03:05:06;4.47;;;0.55;;
49043;SDS011;34860;48.066;14.124;2023-07-16T03:07:55;4.72;;;0.77;;
49043;SDS011;34860;48.066;14.124;2023-07-16T03:10:44;0.75;;;0.63;;
49043;SDS011;34860;48.066;14.124;2023-07-16T03:13:34;1.42;;;0.60;;
49043;SDS011;34860;48.066;14.124;2023-07-16T03:16:22;0.70;;;0.28;;
49043;SDS011;34860;48.066;14.124;2023-07-16T03:19:10;2.78;;;0.82;;
49043;SDS011;34860;48.066;14.124;2023-07-16T03:21:58;1.02;;;0.50;;
49043;SDS011;34860;48.066;14.124;2023-07-16T03:24:47;1.42;;;0.38;;
49043;SDS011;34860;48.066;14.124;2023-07-16T03:27:37;2.10;;;0.35;;
49043;SDS011;34860;48.066;14.124;2023-07-16T03:30:25;1.08;;;0.60;;
49043;SDS011;34860;48.066;14.124;2023-07-16T03:33:13;2.65;;;0.70;;
49043;SDS011;34860;48.066;14.124;2023-07-16T03:36:01;3.25;;;0.77;;
49043;SDS011;34860;48.066;14.124;2023-07-16T03:38:49;0.63;;;0.40;;
49043;SDS011;34860;48.066;14.124;2023-07-16T03:41:37;1.48;;;0.73;;
49043;SDS011;34860;48.066;14.124;2023-07-16T03:44:26;1.35;;;0.30;;
49043;SDS011;34860;48.066;14.124;2023-07-16T03:47:14;3.72;;;0.52;;
49043;SDS011;34860;48.066;14.124;2023-07-16T03:50:04;0.82;;;0.40;;
49043;SDS011;34860;48.066;14.124;2023-07-16T03:52:53;1.25;;;0.60;;
49043;SDS011;34860;48.066;14.124;2023-07-16T03:55:41;1.55;;;0.40;;
49043;SDS011;34860;48.066;14.124;2023-07-16T03:58:30;3.13;;;0.40;;
49043;SDS011;34860;48.066;14.124;2023-07-16T04:01:22;1.00;;;0.38;;
49043;SDS011;34860;48.066;14.124;2023-07-16T04:04:10;0.68;;;0.20;;
49043;SDS011;34860;48.066;14.124;2023-07-16T04:06:59;0.22;;;0.10;;
49043;SDS011;34860;48.066;14.124;2023-07-16T04:09:47;0.63;;;0.30;;
49043;SDS011;34860;48.066;14.124;2023-07-16T04:12:35;0.63;;;0.30;;
49043;SDS011;34860;48.066;14.124;2023-07-16T04:15:24;8.10;;;0.22;;
49043;SDS011;34860;48.066;14.124;2023-07-16T04:18:13;1.48;;;0.20;;
49043;SDS011;34860;48.066;14.124;2023-07-16T04:21:01;0.52;;;0.20;;
49043;SDS011;34860;48.066;14.124;2023-07-16T04:23:49;0.47;;;0.20;;
49043;SDS011;34860;48.066;14.124;2023-07-16T04:26:37;4.38;;;0.30;;
49043;SDS011;34860;48.066;14.124;2023-07-16T04:29:25;0.70;;;0.15;;
49043;SDS011;34860;48.066;14.124;2023-07-16T04:32:13;0.65;;;0.40;;
49043;SDS011;34860;48.066;14.124;2023-07-16T04:35:03;1.58;;;0.40;;
49043;SDS011;34860;48.066;14.124;2023-07-16T04:37:51;0.55;;;0.28;;
49043;SDS011;34860;48.066;14.124;2023-07-16T04:40:41;1.17;;;0.30;;
49043;SDS011;34860;48.066;14.124;2023-07-16T04:43:30;0.25;;;0.15;;
49043;SDS011;34860;48.066;14.124;2023-07-16T04:46:18;0.60;;;0.30;;
49043;SDS011;34860;48.066;14.124;2023-07-16T04:49:06;1.40;;;0.45;;
49043;SDS011;34860;48.066;14.124;2023-07-16T04:51:55;0.55;;;0.20;;
49043;SDS011;34860;48.066;14.124;2023-07-16T04:54:43;1.65;;;0.20;;
49043;SDS011;34860;48.066;14.124;2023-07-16T04:57:32;0.50;;;0.20;;
49043;SDS011;34860;48.066;14.124;2023-07-16T05:00:20;0.45;;;0.20;;
49043;SDS011;34860;48.066;14.124;2023-07-16T05:03:08;0.40;;;0.15;;
49043;SDS011;34860;48.066;14.124;2023-07-16T05:05:56;0.25;;;0.20;;
49043;SDS011;34860;48.066;14.124;2023-07-16T05:08:45;0.30;;;0.30;;
49043;SDS011;34860;48.066;14.124;2023-07-16T05:11:33;1.25;;;0.15;;
49043;SDS011;34860;48.066;14.124;2023-07-16T05:14:25;0.35;;;0.20;;
49043;SDS011;34860;48.066;14.124;2023-07-16T05:17:14;0.68;;;0.20;;
49043;SDS011;34860;48.066;14.124;2023-07-16T05:20:03;0.57;;;0.30;;
49043;SDS011;34860;48.066;14.124;2023-07-16T05:22:51;1.27;;;0.32;;
49043;SDS011;34860;48.066;14.124;2023-07-16T05:25:45;1.60;;;0.40;;
49043;SDS011;34860;48.066;14.124;2023-07-16T05:28:33;0.85;;;0.25;;
49043;SDS011;34860;48.066;14.124;2023-07-16T05:31:23;0.17;;;0.10;;
49043;SDS011;34860;48.066;14.124;2023-07-16T05:34:10;0.50;;;0.20;;
49043;SDS011;34860;48.066;14.124;2023-07-16T05:36:59;0.50;;;0.20;;
49043;SDS011;34860;48.066;14.124;2023-07-16T05:39:47;0.40;;;0.22;;
49043;SDS011;34860;48.066;14.124;2023-07-16T05:42:39;0.30;;;0.20;;
49043;SDS011;34860;48.066;14.124;2023-07-16T05:45:27;0.40;;;0.20;;
49043;SDS011;34860;48.066;14.124;2023-07-16T05:48:16;2.35;;;0.43;;
49043;SDS011;34860;48.066;14.124;2023-07-16T05:51:04;2.25;;;0.30;;
49043;SDS011;34860;48.066;14.124;2023-07-16T05:53:52;2.50;;;0.52;;
49043;SDS011;34860;48.066;14.124;2023-07-16T05:56:41;0.20;;;0.13;;
49043;SDS011;34860;48.066;14.124;2023-07-16T05:59:31;0.98;;;0.30;;
49043;SDS011;34860;48.066;14.124;2023-07-16T06:02:20;0.20;;;0.20;;
49043;SDS011;34860;48.066;14.124;2023-07-16T06:05:09;0.43;;;0.40;;
49043;SDS011;34860;48.066;14.124;2023-07-16T06:07:57;0.52;;;0.30;;
49043;SDS011;34860;48.066;14.124;2023-07-16T06:10:45;0.32;;;0.28;;
49043;SDS011;34860;48.066;14.124;2023-07-16T06:13:33;0.20;;;0.10;;
49043;SDS011;34860;48.066;14.124;2023-07-16T06:16:23;1.23;;;0.20;;
49043;SDS011;34860;48.066;14.124;2023-07-16T06:19:10;0.32;;;0.15;;
49043;SDS011;34860;48.066;14.124;2023-07-16T06:21:58;0.57;;;0.40;;
49043;SDS011;34860;48.066;14.124;2023-07-16T06:24:46;0.90;;;0.32;;
49043;SDS011;34860;48.066;14.124;2023-07-16T06:27:34;5.50;;;0.22;;
49043;SDS011;34860;48.066;14.124;2023-07-16T06:30:22;0.40;;;0.22;;
49043;SDS011;34860;48.066;14.124;2023-07-16T06:33:12;3.35;;;0.20;;
49043;SDS011;34860;48.066;14.124;2023-07-16T06:36:00;0.45;;;0.22;;
49043;SDS011;34860;48.066;14.124;2023-07-16T06:38:48;0.95;;;0.30;;
49043;SDS011;34860;48.066;14.124;2023-07-16T06:41:36;2.25;;;0.30;;
49043;SDS011;34860;48.066;14.124;2023-07-16T06:44:27;0.43;;;0.10;;
49043;SDS011;34860;48.066;14.124;2023-07-16T06:47:15;0.50;;;0.30;;
49043;SDS011;34860;48.066;14.124;2023-07-16T06:50:05;1.52;;;0.43;;
49043;SDS011;34860;48.066;14.124;2023-07-16T06:52:54;0.95;;;0.22;;
49043;SDS011;34860;48.066;14.124;2023-07-16T06:55:42;0.65;;;0.43;;
49043;SDS011;34860;48.066;14.124;2023-07-16T06:58:31;1.40;;;0.30;;
49043;SDS011;34860;48.066;14.124;2023-07-16T07:01:20;0.28;;;0.13;;
49043;SDS011;34860;48.066;14.124;2023-07-16T07:04:08;0.70;;;0.32;;
49043;SDS011;34860;48.066;14.124;2023-07-16T07:06:58;6.95;;;0.20;;
49043;SDS011;34860;48.066;14.124;2023-07-16T07:09:47;0.55;;;0.10;;
49043;SDS011;34860;48.066;14.124;2023-07-16T07:12:35;0.50;;;0.38;;
49043;SDS011;34860;48.066;14.124;2023-07-16T07:15:24;1.77;;;0.30;;
49043;SDS011;34860;48.066;14.124;2023-07-16T07:18:12;0.30;;;0.20;;
49043;SDS011;34860;48.066;14.124;2023-07-16T07:21:00;0.32;;;0.10;;
49043;SDS011;34860;48.066;14.124;2023-07-16T07:23:50;0.40;;;0.20;;
49043;SDS011;34860;48.066;14.124;2023-07-16T07:26:38;0.35;;;0.20;;
49043;SDS011;34860;48.066;14.124;2023-07-16T07:29:26;0.98;;;0.22;;
49043;SDS011;34860;48.066;14.124;2023-07-16T07:32:14;0.30;;;0.15;;
49043;SDS011;34860;48.066;14.124;2023-07-16T07:35:03;0.40;;;0.22;;
49043;SDS011;34860;48.066;14.124;2023-07-16T07:37:52;0.40;;;0.20;;
49043;SDS011;34860;48.066;14.124;2023-07-16T07:40:43;0.52;;;0.43;;
49043;SDS011;34860;48.066;14.124;2023-07-16T07:43:32;0.65;;;0.22;;
49043;SDS011;34860;48.066;14.124;2023-07-16T07:46:20;1.95;;;0.30;;
49043;SDS011;34860;48.066;14.124;2023-07-16T07:49:08;0.80;;;0.25;;
49043;SDS011;34860;48.066;14.124;2023-07-16T07:51:56;0.88;;;0.20;;
49043;SDS011;34860;48.066;14.124;2023-07-16T07:54:44;0.50;;;0.30;;
49043;SDS011;34860;48.066;14.124;2023-07-16T07:57:34;0.50;;;0.38;;
49043;SDS011;34860;48.066;14.124;2023-07-16T08:00:22;0.30;;;0.20;;
49043;SDS011;34860;48.066;14.124;2023-07-16T08:03:10;0.35;;;0.10;;
49043;SDS011;34860;48.066;14.124;2023-07-16T08:05:58;0.35;;;0.13;;
49043;SDS011;34860;48.066;14.124;2023-07-16T08:08:47;1.48;;;0.30;;
49043;SDS011;34860;48.066;14.124;2023-07-16T08:11:35;2.40;;;0.40;;
49043;SDS011;34860;48.066;14.124;2023-07-16T08:14:24;3.25;;;0.52;;
49043;SDS011;34860;48.066;14.124;2023-07-16T08:17:12;0.25;;;0.15;;
49043;SDS011;34860;48.066;14.124;2023-07-16T08:20:00;0.43;;;0.10;;
49043;SDS011;34860;48.066;14.124;2023-07-16T08:22:49;0.85;;;0.55;;
49043;SDS011;34860;48.066;14.124;2023-07-16T08:25:37;0.28;;;0.10;;
49043;SDS011;34860;48.066;14.124;2023-07-16T08:28:25;0.50;;;0.30;;
49043;SDS011;34860;48.066;14.124;2023-07-16T08:31:15;0.52;;;0.20;;
49043;SDS011;34860;48.066;14.124;2023-07-16T08:34:03;0.52;;;0.20;;
49043;SDS011;34860;48.066;14.124;2023-07-16T08:36:51;1.83;;;0.45;;
49043;SDS011;34860;48.066;14.124;2023-07-16T08:39:39;0.35;;;0.10;;
49043;SDS011;34860;48.066;14.124;2023-07-16T08:42:27;1.67;;;0.40;;
49043;SDS011;34860;48.066;14.124;2023-07-16T08:45:17;0.10;;;0.10;;
49043;SDS011;34860;48.066;14.124;2023-07-16T08:48:10;0.43;;;0.20;;
49043;SDS011;34860;48.066;14.124;2023-07-16T08:50:58;3.83;;;0.20;;
49043;SDS011;34860;48.066;14.124;2023-07-16T08:53:50;0.65;;;0.35;;
49043;SDS011;34860;48.066;14.124;2023-07-16T08:56:38;0.30;;;0.20;;
49043;SDS011;34860;48.066;14.124;2023-07-16T08:59:26;0.63;;;0.10;;
49043;SDS011;34860;48.066;14.124;2023-07-16T09:02:15;0.65;;;0.20;;
49043;SDS011;34860;48.066;14.124;2023-07-16T09:05:06;0.10;;;0.10;;
49043;SDS011;34860;48.066;14.124;2023-07-16T09:08:01;0.20;;;0.20;;
49043;SDS011;34860;48.066;14.124;2023-07-16T09:10:53;0.40;;;0.30;;
49043;SDS011;34860;48.066;14.124;2023-07-16T09:13:43;0.20;;;0.10;;
49043;SDS011;34860;48.066;14.124;2023-07-16T09:16:32;0.43;;;0.30;;
49043;SDS011;34860;48.066;14.124;2023-07-16T09:19:21;0.15;;;0.10;;
49043;SDS011;34860;48.066;14.124;2023-07-16T09:22:10;0.00;;;0.00;;
49043;SDS011;34860;48.066;14.124;2023-07-16T09:24:59;0.80;;;0.40;;
49043;SDS011;34860;48.066;14.124;2023-07-16T09:27:48;0.43;;;0.30;;
49043;SDS011;34860;48.066;14.124;2023-07-16T09:30:37;0.40;;;0.30;;
49043;SDS011;34860;48.066;14.124;2023-07-16T09:33:27;0.40;;;0.20;;
49043;SDS011;34860;48.066;14.124;2023-07-16T09:36:22;0.30;;;0.10;;
49043;SDS011;34860;48.066;14.124;2023-07-16T09:39:12;0.30;;;0.10;;
49043;SDS011;34860;48.066;14.124;2023-07-16T09:42:01;0.25;;;0.13;;
49043;SDS011;34860;48.066;14.124;2023-07-16T09:44:49;0.08;;;0.08;;
49043;SDS011;34860;48.066;14.124;2023-07-16T09:47:41;0.20;;;0.20;;
49043;SDS011;34860;48.066;14.124;2023-07-16T09:50:29;0.35;;;0.17;;
49043;SDS011;34860;48.066;14.124;2023-07-16T09:53:21;0.90;;;0.30;;
49043;SDS011;34860;48.066;14.124;2023-07-16T09:56:11;0.82;;;0.17;;
49043;SDS011;34860;48.066;14.124;2023-07-16T09:59:00;1.20;;;0.10;;
49043;SDS011;34860;48.066;14.124;2023-07-16T10:01:49;0.10;;;0.10;;
49043;SDS011;34860;48.066;14.124;2023-07-16T10:04:38;0.25;;;0.20;;
49043;SDS011;34860;48.066;14.124;2023-07-16T10:07:27;0.85;;;0.25;;
49043;SDS011;34860;48.066;14.124;2023-07-16T10:10:15;0.28;;;0.15;;
49043;SDS011;34860;48.066;14.124;2023-07-16T10:13:06;0.30;;;0.10;;
49043;SDS011;34860;48.066;14.124;2023-07-16T10:15:55;0.10;;;0.10;;
49043;SDS011;34860;48.066;14.124;2023-07-16T10:18:49;0.20;;;0.20;;
49043;SDS011;34860;48.066;14.124;2023-07-16T10:21:39;1.80;;;0.10;;
49043;SDS011;34860;48.066;14.124;2023-07-16T10:24:28;0.40;;;0.13;;
49043;SDS011;34860;48.066;14.124;2023-07-16T10:27:26;0.10;;;0.10;;
49043;SDS011;34860;48.066;14.124;2023-07-16T10:30:16;0.22;;;0.10;;
49043;SDS011;34860;48.066;14.124;2023-07-16T10:33:10;0.85;;;0.20;;
49043;SDS011;34860;48.066;14.124;2023-07-16T10:35:59;0.60;;;0.20;;
49043;SDS011;34860;48.066;14.124;2023-07-16T10:38:47;0.20;;;0.10;;
49043;SDS011;34860;48.066;14.124;2023-07-16T10:41:35;0.10;;;0.10;;
49043;SDS011;34860;48.066;14.124;2023-07-16T10:44:24;0.45;;;0.20;;
49043;SDS011;34860;48.066;14.124;2023-07-16T10:47:19;0.15;;;0.10;;
49043;SDS011;34860;48.066;14.124;2023-07-16T10:50:10;0.15;;;0.10;;
49043;SDS011;34860;48.066;14.124;2023-07-16T10:52:58;0.40;;;0.10;;
49043;SDS011;34860;48.066;14.124;2023-07-16T10:55:46;0.25;;;0.20;;
49043;SDS011;34860;48.066;14.124;2023-07-16T10:58:35;0.30;;;0.17;;
49043;SDS011;34860;48.066;14.124;2023-07-16T11:01:24;0.15;;;0.10;;
49043;SDS011;34860;48.066;14.124;2023-07-16T11:04:14;0.20;;;0.10;;
49043;SDS011;34860;48.066;14.124;2023-07-16T11:07:06;0.30;;;0.10;;
49043;SDS011;34860;48.066;14.124;2023-07-16T11:09:55;0.10;;;0.10;;
49043;SDS011;34860;48.066;14.124;2023-07-16T11:12:44;0.10;;;0.00;;
49043;SDS011;34860;48.066;14.124;2023-07-16T11:15:32;0.20;;;0.10;;
49043;SDS011;34860;48.066;14.124;2023-07-16T11:18:22;0.30;;;0.10;;
49043;SDS011;34860;48.066;14.124;2023-07-16T11:21:12;1.50;;;0.15;;
49043;SDS011;34860;48.066;14.124;2023-07-16T11:24:09;6.53;;;0.15;;
49043;SDS011;34860;48.066;14.124;2023-07-16T11:26:58;3.38;;;1.02;;
49043;SDS011;34860;48.066;14.124;2023-07-16T11:29:48;1.95;;;0.20;;
49043;SDS011;34860;48.066;14.124;2023-07-16T11:32:42;1.20;;;0.20;;
49043;SDS011;34860;48.066;14.124;2023-07-16T11:35:31;0.75;;;0.17;;
49043;SDS011;34860;48.066;14.124;2023-07-16T11:38:20;0.20;;;0.10;;
49043;SDS011;34860;48.066;14.124;2023-07-16T11:41:08;0.77;;;0.20;;
49043;SDS011;34860;48.066;14.124;2023-07-16T11:43:59;0.63;;;0.10;;
49043;SDS011;34860;48.066;14.124;2023-07-16T11:46:48;0.85;;;0.15;;
49043;SDS011;34860;48.066;14.124;2023-07-16T11:49:36;0.15;;;0.10;;
49043;SDS011;34860;48.066;14.124;2023-07-16T11:52:25;0.20;;;0.15;;
49043;SDS011;34860;48.066;14.124;2023-07-16T11:55:16;0.30;;;0.20;;
49043;SDS011;34860;48.066;14.124;2023-07-16T11:58:04;0.30;;;0.10;;
49043;SDS011;34860;48.066;14.124;2023-07-16T12:00:52;0.57;;;0.20;;
49043;SDS011;34860;48.066;14.124;2023-07-16T12:03:40;0.25;;;0.20;;
49043;SDS011;34860;48.066;14.124;2023-07-16T12:06:28;0.20;;;0.10;;
49043;SDS011;34860;48.066;14.124;2023-07-16T12:09:17;0.22;;;0.10;;
49043;SDS011;34860;48.066;14.124;2023-07-16T12:12:06;0.20;;;0.10;;
49043;SDS011;34860;48.066;14.124;2023-07-16T12:14:56;0.10;;;0.10;;
49043;SDS011;34860;48.066;14.124;2023-07-16T12:17:44;0.50;;;0.20;;
49043;SDS011;34860;48.066;14.124;2023-07-16T12:20:33;0.30;;;0.17;;
49043;SDS011;34860;48.066;14.124;2023-07-16T12:23:22;1.67;;;0.20;;
49043;SDS011;34860;48.066;14.124;2023-07-16T12:26:10;0.20;;;0.10;;
49043;SDS011;34860;48.066;14.124;2023-07-16T12:29:00;0.10;;;0.10;;
49043;SDS011;34860;48.066;14.124;2023-07-16T12:31:50;0.10;;;0.10;;
49043;SDS011;34860;48.066;14.124;2023-07-16T12:34:38;0.20;;;0.17;;
49043;SDS011;34860;48.066;14.124;2023-07-16T12:37:26;0.20;;;0.10;;
49043;SDS011;34860;48.066;14.124;2023-07-16T12:40:14;0.20;;;0.08;;
49043;SDS011;34860;48.066;14.124;2023-07-16T12:43:03;0.17;;;0.10;;
49043;SDS011;34860;48.066;14.124;2023-07-16T12:45:53;0.25;;;0.10;;
49043;SDS011;34860;48.066;14.124;2023-07-16T12:48:41;0.60;;;0.15;;
49043;SDS011;34860;48.066;14.124;2023-07-16T12:51:32;0.13;;;0.10;;
49043;SDS011;34860;48.066;14.124;2023-07-16T12:54:21;0.10;;;0.10;;
49043;SDS011;34860;48.066;14.124;2023-07-16T12:57:10;0.32;;;0.10;;
49043;SDS011;34860;48.066;14.124;2023-07-16T12:59:57;0.20;;;0.15;;
49043;SDS011;34860;48.066;14.124;2023-07-16T13:02:47;0.10;;;0.10;;
49043;SDS011;34860;48.066;14.124;2023-07-16T13:05:35;0.20;;;0.10;;
49043;SDS011;34860;48.066;14.124;2023-07-16T13:08:23;1.27;;;0.20;;
49043;SDS011;34860;48.066;14.124;2023-07-16T13:11:11;0.68;;;0.13;;
49043;SDS011;34860;48.066;14.124;2023-07-16T13:13:59;0.20;;;0.10;;
49043;SDS011;34860;48.066;14.124;2023-07-16T13:16:47;0.40;;;0.20;;
49043;SDS011;34860;48.066;14.124;2023-07-16T13:19:37;0.10;;;0.00;;
49043;SDS011;34860;48.066;14.124;2023-07-16T13:22:25;0.13;;;0.10;;
49043;SDS011;34860;48.066;14.124;2023-07-16T13:25:13;0.15;;;0.10;;
49043;SDS011;34860;48.066;14.124;2023-07-16T13:28:01;0.22;;;0.17;;
49043;SDS011;34860;48.066;14.124;2023-07-16T13:30:49;0.40;;;0.10;;
49043;SDS011;34860;48.066;14.124;2023-07-16T13:33:37;0.25;;;0.10;;
49043;SDS011;34860;48.066;14.124;2023-07-16T13:36:27;0.17;;;0.10;;
49043;SDS011;34860;48.066;14.124;2023-07-16T13:39:17;0.25;;;0.10;;
49043;SDS011;34860;48.066;14.124;2023-07-16T13:42:06;0.03;;;0.00;;
49043;SDS011;34860;48.066;14.124;2023-07-16T13:45:03;0.40;;;0.10;;
49043;SDS011;34860;48.066;14.124;2023-07-16T13:47:51;0.25;;;0.10;;
49043;SDS011;34860;48.066;14.124;2023-07-16T13:50:40;0.20;;;0.20;;
49043;SDS011;34860;48.066;14.124;2023-07-16T13:53:30;0.30;;;0.10;;
49043;SDS011;34860;48.066;14.124;2023-07-16T13:56:18;0.52;;;0.10;;
49043;SDS011;34860;48.066;14.124;2023-07-16T13:59:06;0.40;;;0.20;;
49043;SDS011;34860;48.066;14.124;2023-07-16T14:01:58;0.22;;;0.10;;
49043;SDS011;34860;48.066;14.124;2023-07-16T14:04:47;0.10;;;0.10;;
49043;SDS011;34860;48.066;14.124;2023-07-16T14:07:35;0.10;;;0.10;;
49043;SDS011;34860;48.066;14.124;2023-07-16T14:10:25;0.10;;;0.10;;
49043;SDS011;34860;48.066;14.124;2023-07-16T14:13:13;0.28;;;0.20;;
49043;SDS011;34860;48.066;14.124;2023-07-16T14:16:02;0.38;;;0.20;;
49043;SDS011;34860;48.066;14.124;2023-07-16T14:18:51;0.30;;;0.10;;
49043;SDS011;34860;48.066;14.124;2023-07-16T14:21:40;0.30;;;0.10;;
49043;SDS011;34860;48.066;14.124;2023-07-16T14:24:28;1.13;;;0.10;;
49043;SDS011;34860;48.066;14.124;2023-07-16T14:27:18;2.10;;;0.10;;
49043;SDS011;34860;48.066;14.124;2023-07-16T14:30:07;0.20;;;0.10;;
49043;SDS011;34860;48.066;14.124;2023-07-16T14:32:59;0.20;;;0.20;;
49043;SDS011;34860;48.066;14.124;2023-07-16T14:35:50;0.30;;;0.10;;
49043;SDS011;34860;48.066;14.124;2023-07-16T14:38:38;0.10;;;0.10;;
49043;SDS011;34860;48.066;14.124;2023-07-16T14:41:27;0.63;;;0.20;;
49043;SDS011;34860;48.066;14.124;2023-07-16T14:44:17;0.10;;;0.10;;
49043;SDS011;34860;48.066;14.124;2023-07-16T14:47:05;0.30;;;0.13;;
49043;SDS011;34860;48.066;14.124;2023-07-16T14:49:53;0.03;;;0.03;;
49043;SDS011;34860;48.066;14.124;2023-07-16T14:52:42;1.20;;;0.20;;
49043;SDS011;34860;48.066;14.124;2023-07-16T14:55:30;0.75;;;0.10;;
49043;SDS011;34860;48.066;14.124;2023-07-16T14:58:18;0.10;;;0.10;;
49043;SDS011;34860;48.066;14.124;2023-07-16T15:01:09;0.03;;;0.00;;
49043;SDS011;34860;48.066;14.124;2023-07-16T15:03:57;0.30;;;0.10;;
49043;SDS011;34860;48.066;14.124;2023-07-16T15:06:45;0.17;;;0.17;;
49043;SDS011;34860;48.066;14.124;2023-07-16T15:09:34;0.10;;;0.10;;
49043;SDS011;34860;48.066;14.124;2023-07-16T15:12:24;0.28;;;0.10;;
49043;SDS011;34860;48.066;14.124;2023-07-16T15:15:12;0.30;;;0.20;;
49043;SDS011;34860;48.066;14.124;2023-07-16T15:18:02;0.40;;;0.15;;
49043;SDS011;34860;48.066;14.124;2023-07-16T15:20:55;0.30;;;0.10;;
49043;SDS011;34860;48.066;14.124;2023-07-16T15:23:44;0.10;;;0.10;;
49043;SDS011;34860;48.066;14.124;2023-07-16T15:26:32;0.22;;;0.10;;
49043;SDS011;34860;48.066;14.124;2023-07-16T15:29:21;0.63;;;0.20;;
49043;SDS011;34860;48.066;14.124;2023-07-16T15:32:09;0.20;;;0.10;;
49043;SDS011;34860;48.066;14.124;2023-07-16T15:34:58;0.20;;;0.10;;
49043;SDS011;34860;48.066;14.124;2023-07-16T15:37:46;0.20;;;0.20;;
49043;SDS011;34860;48.066;14.124;2023-07-16T15:40:35;0.40;;;0.20;;
49043;SDS011;34860;48.066;14.124;2023-07-16T15:43:23;0.40;;;0.20;;
49043;SDS011;34860;48.066;14.124;2023-07-16T15:46:11;0.10;;;0.10;;
49043;SDS011;34860;48.066;14.124;2023-07-16T15:48:59;0.25;;;0.20;;
49043;SDS011;34860;48.066;14.124;2023-07-16T15:51:51;0.40;;;0.10;;
49043;SDS011;34860;48.066;14.124;2023-07-16T15:54:42;0.28;;;0.10;;
49043;SDS011;34860;48.066;14.124;2023-07-16T15:57:30;0.20;;;0.17;;
49043;SDS011;34860;48.066;14.124;2023-07-16T16:00:18;0.30;;;0.10;;
49043;SDS011;34860;48.066;14.124;2023-07-16T16:03:08;0.15;;;0.10;;
49043;SDS011;34860;48.066;14.124;2023-07-16T16:05:56;0.25;;;0.10;;
49043;SDS011;34860;48.066;14.124;2023-07-16T16:08:45;0.25;;;0.10;;
49043;SDS011;34860;48.066;14.124;2023-07-16T16:11:33;0.50;;;0.10;;
49043;SDS011;34860;48.066;14.124;2023-07-16T16:14:22;0.28;;;0.15;;
49043;SDS011;34860;48.066;14.124;2023-07-16T16:17:10;0.15;;;0.10;;
49043;SDS011;34860;48.066;14.124;2023-07-16T16:19:58;0.10;;;0.10;;
49043;SDS011;34860;48.066;14.124;2023-07-16T16:22:46;0.60;;;0.20;;
49043;SDS011;34860;48.066;14.124;2023-07-16T16:25:38;0.50;;;0.30;;
49043;SDS011;34860;48.066;14.124;2023-07-16T16:28:26;0.43;;;0.10;;
49043;SDS011;34860;48.066;14.124;2023-07-16T16:31:14;4.03;;;0.20;;
49043;SDS011;34860;48.066;14.124;2023-07-16T16:34:02;0.32;;;0.13;;
49043;SDS011;34860;48.066;14.124;2023-07-16T16:36:51;0.22;;;0.10;;
49043;SDS011;34860;48.066;14.124;2023-07-16T16:39:41;0.28;;;0.20;;
49043;SDS011;34860;48.066;14.124;2023-07-16T16:42:30;0.15;;;0.15;;